Time;durP1;ratioP1;P1;durP2;ratioP2;P2;SDS_P1;SDS_P2;PMS_P1;PMS_P2;Temp;Humidity;BMP_temperature;BMP_pressure;BME280_temperature;BME280_humidity;BME280_pressure;Samples;Min_cycle;Max_cycle;Signal;HPM_P1;HPM_P2
2021/12/07 00:01:09;;;;;;;18.85;13.13;;;;;;;0.36;100.00;100424.50;5090614;28;20325;-88
2021/12/07 00:03:35;;;;;;;19.27;14.13;;;;;;;0.41;100.00;100429.50;5085343;28;20028;-88
2021/12/07 00:06:01;;;;;;;21.85;15.65;;;;;;;0.43;100.00;100454.44;5083330;28;20024;-88
2021/12/07 00:08:28;;;;;;;21.02;14.70;;;;;;;0.39;100.00;100439.91;5090608;28;20105;-88
2021/12/07 00:10:53;;;;;;;25.50;17.02;;;;;;;0.46;100.00;100454.31;5089946;28;20111;-88
2021/12/07 00:13:19;;;;;;;24.58;16.85;;;;;;;0.49;100.00;100458.53;5090691;28;20032;-88
2021/12/07 00:15:46;;;;;;;25.17;17.48;;;;;;;0.52;100.00;100451.47;5089984;28;20445;-89
2021/12/07 00:18:12;;;;;;;25.67;17.38;;;;;;;0.52;100.00;100455.81;5089606;28;20031;-89
2021/12/07 00:20:37;;;;;;;26.85;18.05;;;;;;;0.52;100.00;100451.47;5089833;28;20020;-88
2021/12/07 00:23:07;;;;;;;30.00;19.25;;;;;;;0.61;100.00;100463.22;5080007;28;20035;-88
2021/12/07 00:25:33;;;;;;;40.72;20.38;;;;;;;0.62;100.00;100457.97;5089782;28;20027;-89
2021/12/07 00:27:58;;;;;;;35.05;20.48;;;;;;;0.67;100.00;100462.97;5090230;28;20024;-88
2021/12/07 00:30:29;;;;;;;31.90;20.48;;;;;;;0.65;100.00;100449.25;5089872;28;20130;-88
2021/12/07 00:33:08;;;;;;;38.13;22.48;;;;;;;0.77;100.00;100455.66;5089627;28;20431;-84
2021/12/07 00:35:35;;;;;;;41.10;23.83;;;;;;;0.81;100.00;100460.69;5083619;28;20020;-88
2021/12/07 00:38:06;;;;;;;39.80;23.85;;;;;;;0.88;100.00;100476.81;5088319;28;20015;-88
2021/12/07 00:40:32;;;;;;;42.47;24.03;;;;;;;0.90;100.00;100470.69;5084559;28;20026;-88
2021/12/07 00:42:58;;;;;;;42.67;24.48;;;;;;;0.96;100.00;100479.94;5090048;28;20274;-88
2021/12/07 00:45:25;;;;;;;44.50;25.77;;;;;;;1.01;100.00;100488.38;5087774;28;20073;-88
2021/12/07 00:47:53;;;;;;;43.30;25.33;;;;;;;1.06;100.00;100485.59;5089206;28;20103;-88
2021/12/07 00:50:22;;;;;;;38.55;24.70;;;;;;;1.08;100.00;100488.94;5089381;28;20020;-88
2021/12/07 00:52:50;;;;;;;44.08;25.23;;;;;;;1.17;100.00;100504.97;5088865;28;20436;-86
2021/12/07 00:55:20;;;;;;;43.92;25.27;;;;;;;1.18;100.00;100501.47;5088825;28;20028;-88
2021/12/07 00:57:49;;;;;;;45.67;24.65;;;;;;;1.29;100.00;100502.78;5086987;28;20032;-83
2021/12/07 01:00:16;;;;;;;44.72;23.85;;;;;;;1.34;100.00;100506.03;5088893;28;20048;-88
2021/12/07 01:02:44;;;;;;;46.78;23.48;;;;;;;1.45;100.00;100514.19;5089290;28;20050;-88
2021/12/07 01:05:22;;;;;;;50.88;25.88;;;;;;;1.52;100.00;100507.84;5089231;28;20107;-88
2021/12/07 01:08:08;;;;;;;48.67;24.42;;;;;;;1.58;100.00;100520.53;5088831;28;20046;-88
2021/12/07 01:27:03;;;;;;;41.15;21.42;;;;;;;1.89;100.00;100559.84;5092418;28;20262;-88
2021/12/07 01:29:29;;;;;;;46.42;21.95;;;;;;;1.89;100.00;100565.03;5093532;28;20387;-84
2021/12/07 01:32:11;;;;;;;41.85;20.73;;;;;;;1.89;100.00;100562.44;5087131;28;20016;-87
2021/12/07 01:51:24;;;;;;;33.97;15.30;;;;;;;2.12;100.00;100583.97;5089957;28;20062;-87
2021/12/07 01:59:38;;;;;;;36.70;12.77;;;;;;;2.20;100.00;100590.50;5092904;28;20104;-87
2021/12/07 02:02:08;;;;;;;35.65;12.80;;;;;;;2.26;100.00;100591.97;5086109;28;20043;-87
2021/12/07 02:04:36;;;;;;;35.42;11.90;;;;;;;2.27;100.00;100593.66;5092015;28;20024;-87
2021/12/07 02:07:02;;;;;;;42.70;11.98;;;;;;;2.31;100.00;100604.75;5090470;28;20212;-87
2021/12/07 02:09:27;;;;;;;39.05;10.93;;;;;;;2.32;100.00;100607.28;5091604;28;20104;-87
2021/12/07 02:11:59;;;;;;;35.95;10.48;;;;;;;2.34;100.00;100610.66;5092324;28;20468;-87
2021/12/07 02:14:25;;;;;;;29.57;10.17;;;;;;;2.39;100.00;100619.06;5092089;28;20024;-87
2021/12/07 02:16:57;;;;;;;32.50;9.43;;;;;;;2.38;100.00;100612.19;5090042;28;20012;-87
2021/12/07 02:19:43;;;;;;;28.92;8.45;;;;;;;2.48;100.00;100629.09;5091749;28;20039;-87
2021/12/07 02:22:10;;;;;;;31.83;8.35;;;;;;;2.49;100.00;100630.78;5082788;28;20046;-87
2021/12/07 02:24:36;;;;;;;31.25;7.68;;;;;;;2.49;100.00;100629.94;5088324;28;20113;-87
2021/12/07 02:27:03;;;;;;;24.45;7.03;;;;;;;2.54;100.00;100637.50;5091957;28;20051;-87
2021/12/07 02:29:28;;;;;;;25.40;6.75;;;;;;;2.56;100.00;100644.31;5091898;28;20464;-87
2021/12/07 02:31:55;;;;;;;32.67;7.53;;;;;;;2.54;100.00;100634.91;5090890;28;20085;-87
2021/12/07 02:34:25;;;;;;;28.55;5.95;;;;;;;2.53;100.00;100641.88;5091546;28;20071;-86
2021/12/07 02:36:53;;;;;;;25.08;5.93;;;;;;;2.54;100.00;100645.31;5090868;28;20032;-86
2021/12/07 02:39:28;;;;;;;32.45;5.82;;;;;;;2.59;100.00;100651.13;5091400;28;20530;-85
2021/12/07 02:41:53;;;;;;;26.58;5.93;;;;;;;2.55;100.00;100649.59;5084659;28;20103;-86
2021/12/07 02:44:19;;;;;;;25.30;5.45;;;;;;;2.53;100.00;100651.41;5090184;28;20106;-86
2021/12/07 02:46:44;;;;;;;26.67;5.18;;;;;;;2.53;100.00;100644.47;5091866;28;20024;-86
2021/12/07 02:49:10;;;;;;;28.20;5.13;;;;;;;2.55;100.00;100657.38;5092378;28;20460;-85
2021/12/07 02:51:36;;;;;;;26.58;4.82;;;;;;;2.56;100.00;100661.66;5091659;28;20035;-88
2021/12/07 02:54:02;;;;;;;27.13;5.10;;;;;;;2.59;100.00;100677.09;5091610;28;20047;-88
2021/12/07 02:56:27;;;;;;;25.40;5.00;;;;;;;2.59;100.00;100677.09;5088164;28;20077;-86
2021/12/07 02:58:59;;;;;;;24.65;5.13;;;;;;;2.55;100.00;100675.56;5084779;28;20032;-86
2021/12/07 03:01:29;;;;;;;25.60;4.70;;;;;;;2.55;100.00;100685.94;5077512;28;20020;-86
2021/12/07 03:04:11;;;;;;;28.67;4.75;;;;;;;2.54;100.00;100684.25;5086482;28;20048;-81
2021/12/07 03:07:47;;;;;;;28.55;4.95;;;;;;;2.57;100.00;100689.31;5088196;28;20028;-82
2021/12/07 03:28:21;;;;;;;19.75;4.50;;;;;;;2.44;100.00;100714.97;5087267;28;20592;-85
2021/12/07 03:30:46;;;;;;;29.17;4.75;;;;;;;2.44;100.00;100714.97;5090931;28;20073;-85
2021/12/07 03:33:15;;;;;;;25.75;5.03;;;;;;;2.35;100.00;100716.19;5087862;28;20110;-85
2021/12/07 03:35:40;;;;;;;21.23;4.00;;;;;;;2.39;100.00;100722.09;5091275;28;20399;-85
2021/12/07 03:38:07;;;;;;;24.20;4.53;;;;;;;2.35;100.00;100726.56;5090578;28;20112;-85
2021/12/07 03:40:34;;;;;;;20.85;4.55;;;;;;;2.31;100.00;100737.97;5089827;28;20022;-86
2021/12/07 03:43:00;;;;;;;20.20;4.30;;;;;;;2.34;100.00;100743.03;5090227;28;20073;-85
2021/12/07 03:45:26;;;;;;;24.08;4.45;;;;;;;2.31;100.00;100748.38;5078693;28;20032;-85
2021/12/07 03:47:52;;;;;;;25.63;4.78;;;;;;;2.31;100.00;100756.16;5089091;28;20093;-85
2021/12/07 03:50:21;;;;;;;21.70;4.10;;;;;;;2.29;100.00;100763.16;5090715;28;20088;-85
2021/12/07 03:52:47;;;;;;;19.65;4.07;;;;;;;2.35;100.00;100751.69;5088994;28;20111;-85
2021/12/07 03:55:12;;;;;;;23.90;4.35;;;;;;;2.32;100.00;100752.66;5090133;28;20036;-86
2021/12/07 03:57:37;;;;;;;20.27;3.97;;;;;;;2.33;100.00;100762.13;5090769;28;20039;-86
2021/12/07 04:00:07;;;;;;;26.00;4.65;;;;;;;2.27;100.00;100753.75;5090889;28;20031;-86
2021/12/07 04:02:39;;;;;;;26.35;4.38;;;;;;;2.29;100.00;100755.38;5086487;28;20056;-86
2021/12/07 04:05:09;;;;;;;19.90;4.65;;;;;;;2.34;100.00;100755.19;5089407;28;20023;-86
2021/12/07 04:07:35;;;;;;;25.73;4.43;;;;;;;2.26;100.00;100745.13;5088884;28;20034;-86
2021/12/07 04:10:00;;;;;;;18.52;4.18;;;;;;;2.33;100.00;100764.72;5089842;28;20995;-86
2021/12/07 04:12:25;;;;;;;20.08;4.40;;;;;;;2.25;100.00;100756.41;5090202;28;20032;-86
2021/12/07 04:14:51;;;;;;;19.30;4.00;;;;;;;2.27;100.00;100762.38;5083060;28;20479;-82
2021/12/07 04:17:18;;;;;;;24.08;4.38;;;;;;;2.25;100.00;100766.78;5089748;28;20050;-87
2021/12/07 04:19:43;;;;;;;18.23;3.72;;;;;;;2.19;100.00;100754.91;5084122;28;20063;-82
2021/12/07 04:22:08;;;;;;;22.25;4.22;;;;;;;2.24;100.00;100772.06;5090622;28;20059;-86
2021/12/07 04:24:34;;;;;;;17.73;4.05;;;;;;;2.23;100.00;100773.81;5089166;28;20098;-86
2021/12/07 04:26:59;;;;;;;19.98;3.88;;;;;;;2.20;100.00;100772.19;5089788;28;20069;-86
2021/12/07 04:29:25;;;;;;;24.05;4.07;;;;;;;2.22;100.00;100772.13;5089445;28;20399;-86
2021/12/07 04:31:50;;;;;;;24.02;3.83;;;;;;;2.21;100.00;100778.22;5089648;28;20464;-81
2021/12/07 04:34:15;;;;;;;24.33;3.83;;;;;;;2.27;100.00;100790.94;5089201;28;20082;-85
2021/12/07 04:36:45;;;;;;;21.02;3.90;;;;;;;2.18;100.00;100768.81;5079070;28;20079;-86
2021/12/07 04:39:13;;;;;;;25.45;4.32;;;;;;;2.20;100.00;100767.00;5090082;28;20078;-86
2021/12/07 04:41:41;;;;;;;17.42;3.50;;;;;;;2.30;100.00;100788.22;5089907;28;20046;-85
2021/12/07 04:44:07;;;;;;;22.10;3.78;;;;;;;2.28;100.00;100794.38;5089175;28;20085;-86
2021/12/07 04:46:41;;;;;;;25.15;4.20;;;;;;;2.32;100.00;100799.38;5089166;28;20472;-86
2021/12/07 04:57:44;;;;;;;23.02;4.68;;;;;;;2.27;100.00;100793.53;5089081;28;20547;-86
2021/12/07 05:00:26;;;;;;;19.23;3.67;;;;;;;2.31;100.00;100792.50;5085538;28;20034;-86
2021/12/07 05:03:00;;;;;;;23.90;3.95;;;;;;;2.30;100.00;100792.56;5082866;28;20031;-86
2021/12/07 05:05:31;;;;;;;20.95;3.63;;;;;;;2.23;100.00;100806.69;5087811;28;20024;-86
2021/12/07 05:07:59;;;;;;;17.85;3.38;;;;;;;2.24;100.00;100805.78;5087764;28;20030;-86
2021/12/07 05:18:34;;;;;;;22.90;3.40;;;;;;;2.10;100.00;100817.56;5090037;28;20126;-86
2021/12/07 05:24:00;;;;;;;24.25;3.63;;;;;;;2.00;100.00;100813.66;5090410;28;20530;-85
2021/12/07 05:37:48;;;;;;;19.80;5.35;;;;;;;1.83;100.00;100861.00;5085562;28;20373;-86
2021/12/07 05:40:18;;;;;;;22.95;6.13;;;;;;;1.73;100.00;100846.69;5088471;28;20036;-85
2021/12/07 05:42:44;;;;;;;26.15;5.78;;;;;;;1.70;100.00;100851.13;5088509;28;20020;-81
2021/12/07 05:45:14;;;;;;;16.05;5.95;;;;;;;1.69;100.00;100870.19;5081915;28;20032;-86
2021/12/07 05:47:41;;;;;;;28.02;7.43;;;;;;;1.69;100.00;100878.81;5091017;28;20031;-86
2021/12/07 05:50:08;;;;;;;26.23;7.30;;;;;;;1.63;100.00;100873.88;5089132;28;20028;-85
2021/12/07 05:52:40;;;;;;;33.05;7.53;;;;;;;1.55;100.00;100868.09;5089983;28;20031;-86
2021/12/07 05:55:06;;;;;;;24.63;7.88;;;;;;;1.54;100.00;100871.59;5089202;28;20043;-86
2021/12/07 05:57:32;;;;;;;23.75;7.85;;;;;;;1.52;100.00;100878.56;5088888;28;20038;-86
2021/12/07 05:59:58;;;;;;;36.00;8.35;;;;;;;1.48;100.00;100877.00;5088833;28;20036;-86
2021/12/07 06:02:23;;;;;;;32.63;8.10;;;;;;;1.50;100.00;100894.19;5087640;28;20026;-86
2021/12/07 06:04:49;;;;;;;26.42;7.80;;;;;;;1.50;100.00;100886.41;5089472;28;20032;-86
2021/12/07 06:07:14;;;;;;;32.10;7.88;;;;;;;1.50;100.00;100886.41;5088865;28;20028;-86
2021/12/07 06:09:39;;;;;;;32.72;8.13;;;;;;;1.45;100.00;100882.28;5088848;28;20024;-86
2021/12/07 06:12:05;;;;;;;30.00;7.78;;;;;;;1.45;100.00;100885.72;5089521;28;20030;-86
2021/12/07 06:14:40;;;;;;;30.85;8.90;;;;;;;1.43;100.00;100894.47;5098199;28;20040;-81
2021/12/07 06:17:10;;;;;;;28.60;7.95;;;;;;;1.47;100.00;100896.03;5092743;28;20042;-86
2021/12/07 06:19:35;;;;;;;29.92;8.45;;;;;;;1.41;100.00;100875.53;5091768;28;20023;-85
2021/12/07 06:22:01;;;;;;;29.17;8.73;;;;;;;1.36;100.00;100878.28;5092849;28;20392;-86
2021/12/07 06:24:26;;;;;;;29.05;8.70;;;;;;;1.33;100.00;100878.41;5091965;28;20042;-85
2021/12/07 06:26:51;;;;;;;28.80;7.70;;;;;;;1.36;100.00;100893.00;5093448;28;20120;-86
2021/12/07 06:29:17;;;;;;;34.88;8.23;;;;;;;1.35;100.00;100902.50;5092722;28;20059;-85
2021/12/07 06:31:53;;;;;;;25.83;7.82;;;;;;;1.34;100.00;100910.34;5098287;28;20024;-86
2021/12/07 06:34:19;;;;;;;32.15;8.13;;;;;;;1.26;100.00;100897.66;5088354;28;20044;-81
2021/12/07 06:36:44;;;;;;;31.02;8.45;;;;;;;1.27;100.00;100904.53;5090017;28;20557;-81
2021/12/07 06:39:10;;;;;;;27.92;8.10;;;;;;;1.27;100.00;100903.69;5093171;28;20031;-86
2021/12/07 06:41:35;;;;;;;33.28;8.40;;;;;;;1.32;100.00;100919.94;5093028;28;20027;-87
2021/12/07 06:44:01;;;;;;;32.60;8.88;;;;;;;1.29;100.00;100907.06;5090929;28;20032;-86
2021/12/07 06:46:26;;;;;;;29.45;8.10;;;;;;;1.27;100.00;100912.31;5093347;28;20032;-86
2021/12/07 06:48:52;;;;;;;29.92;8.98;;;;;;;1.24;100.00;100904.66;5093299;28;20035;-86
2021/12/07 06:51:22;;;;;;;30.70;9.38;;;;;;;1.28;100.00;100907.97;5085742;28;20033;-86
2021/12/07 06:53:48;;;;;;;31.60;7.95;;;;;;;1.28;100.00;100920.94;5092439;28;20392;-81
2021/12/07 06:56:13;;;;;;;38.53;9.38;;;;;;;1.24;100.00;100900.31;5092705;28;20028;-86
2021/12/07 06:58:39;;;;;;;32.78;9.95;;;;;;;1.29;100.00;100917.44;5091037;28;20028;-86
2021/12/07 07:01:07;;;;;;;31.08;8.77;;;;;;;1.28;100.00;100910.56;5094752;28;20016;-86
2021/12/07 07:03:35;;;;;;;30.27;8.73;;;;;;;1.27;100.00;100911.47;5091308;28;20030;-86
2021/12/07 07:06:01;;;;;;;40.28;10.38;;;;;;;1.27;100.00;100919.25;5090722;28;20478;-86
2021/12/07 07:08:27;;;;;;;34.90;8.88;;;;;;;1.25;100.00;100921.88;5089121;28;20031;-86
2021/12/07 07:10:52;;;;;;;33.80;8.63;;;;;;;1.23;100.00;100919.34;5090484;28;20028;-88
2021/12/07 07:13:18;;;;;;;37.40;9.48;;;;;;;1.29;100.00;100935.59;5093001;28;20027;-86
2021/12/07 07:15:43;;;;;;;33.15;9.50;;;;;;;1.25;100.00;100924.47;5083452;28;20034;-88
2021/12/07 07:18:08;;;;;;;31.25;8.88;;;;;;;1.22;100.00;100917.66;5090132;28;20491;-88
2021/12/07 07:20:43;;;;;;;36.92;10.05;;;;;;;1.22;100.00;100915.06;5089640;28;20032;-84
2021/12/07 07:34:06;;;;;;;37.90;10.05;;;;;;;1.25;100.00;100948.66;5049284;28;20405;-84
2021/12/07 07:36:31;;;;;;;40.17;10.77;;;;;;;1.23;100.00;100939.22;5029074;28;20054;-85
2021/12/07 07:38:57;;;;;;;46.72;11.25;;;;;;;1.25;100.00;100937.44;5030254;28;20026;-86
2021/12/07 07:41:22;;;;;;;40.33;11.43;;;;;;;1.25;100.00;100935.69;5030026;28;20060;-86
2021/12/07 07:43:48;;;;;;;36.63;11.15;;;;;;;1.28;100.00;100941.66;5029436;28;20143;-86
2021/12/07 07:46:13;;;;;;;43.42;11.60;;;;;;;1.23;100.00;100929.72;5029971;28;20021;-86
2021/12/07 07:48:38;;;;;;;36.58;10.63;;;;;;;1.33;100.00;100934.56;5030778;28;20072;-86
2021/12/07 07:51:07;;;;;;;43.38;10.30;;;;;;;1.25;100.00;100920.13;5030269;28;20465;-86
2021/12/07 07:53:32;;;;;;;43.50;10.93;;;;;;;1.34;100.00;100928.50;5030183;28;20068;-86
2021/12/07 07:55:57;;;;;;;44.78;10.82;;;;;;;1.32;100.00;100919.94;5030483;28;20496;-86
2021/12/07 07:58:23;;;;;;;41.10;11.05;;;;;;;1.30;100.00;100913.94;5030199;28;20025;-86
2021/12/07 08:00:49;;;;;;;34.28;10.25;;;;;;;1.31;100.00;100915.63;5029935;28;20037;-86
2021/12/07 08:03:14;;;;;;;32.83;10.05;;;;;;;1.29;100.00;100907.06;5031145;28;20029;-81
2021/12/07 08:05:40;;;;;;;27.80;9.55;;;;;;;1.34;100.00;100915.53;5042108;28;20491;-86
2021/12/07 08:08:05;;;;;;;36.25;9.98;;;;;;;1.36;100.00;100924.09;5050007;28;20046;-86
2021/12/07 08:10:31;;;;;;;27.80;10.23;;;;;;;1.34;100.00;100926.75;5050578;28;20036;-86
2021/12/07 08:12:59;;;;;;;29.23;10.00;;;;;;;1.30;100.00;100925.16;5055246;28;20520;-85
2021/12/07 08:15:26;;;;;;;37.92;10.15;;;;;;;1.31;100.00;100926.00;5070105;28;20024;-86
2021/12/07 08:17:52;;;;;;;40.08;9.98;;;;;;;1.35;100.00;100936.22;5071081;28;20574;-86
2021/12/07 08:20:17;;;;;;;32.60;9.48;;;;;;;1.32;100.00;100943.25;5056464;28;20096;-85
2021/12/07 08:22:42;;;;;;;31.30;9.55;;;;;;;1.38;100.00;100956.84;5050217;28;20397;-86
2021/12/07 08:25:08;;;;;;;32.47;8.68;;;;;;;1.32;100.00;100949.28;5051012;28;20057;-85
2021/12/07 08:27:33;;;;;;;33.13;9.13;;;;;;;1.39;100.00;100965.47;5050404;28;20465;-86
2021/12/07 08:29:59;;;;;;;23.30;8.10;;;;;;;1.38;100.00;100968.97;5065266;28;20025;-86
2021/12/07 08:32:24;;;;;;;23.77;8.45;;;;;;;1.37;100.00;100964.66;5050521;28;20035;-86
2021/12/07 08:34:50;;;;;;;24.55;8.68;;;;;;;1.36;100.00;100968.16;5064253;28;20499;-86
2021/12/07 08:37:15;;;;;;;23.48;7.97;;;;;;;1.39;100.00;100970.66;5089838;28;20395;-86
2021/12/07 08:39:40;;;;;;;33.10;8.77;;;;;;;1.33;100.00;100963.09;5084418;28;20399;-85
2021/12/07 08:42:09;;;;;;;27.20;7.50;;;;;;;1.37;100.00;100967.25;5090273;28;20042;-86
2021/12/07 08:44:38;;;;;;;28.85;7.10;;;;;;;1.30;100.00;100958.00;5088594;28;20502;-86
2021/12/07 08:47:03;;;;;;;28.55;7.60;;;;;;;1.37;100.00;100967.25;5088790;28;20476;-86
2021/12/07 08:49:29;;;;;;;27.88;7.28;;;;;;;1.34;100.00;100957.00;5089454;28;20027;-86
2021/12/07 08:51:54;;;;;;;24.85;7.03;;;;;;;1.37;100.00;100952.56;5089929;28;20055;-86
2021/12/07 08:54:35;;;;;;;27.50;7.38;;;;;;;1.33;100.00;100943.19;5089516;28;20503;-86
2021/12/07 08:59:48;;;;;;;25.73;6.60;;;;;;;1.45;100.00;100949.69;5070996;28;20582;-82
2021/12/07 09:02:17;;;;;;;23.02;7.40;;;;;;;1.41;100.00;100932.56;5085867;28;20078;-86
2021/12/07 09:04:43;;;;;;;21.63;7.05;;;;;;;1.40;100.00;100920.50;5089581;28;20468;-86
2021/12/07 09:07:09;;;;;;;25.58;6.90;;;;;;;1.50;100.00;100929.63;5090746;28;20030;-87
2021/12/07 09:09:36;;;;;;;30.02;7.93;;;;;;;1.53;100.00;100922.59;5090394;28;20028;-86
2021/12/07 09:12:03;;;;;;;21.10;7.00;;;;;;;1.53;100.00;100921.75;5073344;28;20036;-86
2021/12/07 09:14:30;;;;;;;32.28;7.50;;;;;;;1.55;100.00;100914.75;5104053;28;20015;-86
2021/12/07 09:16:56;;;;;;;31.17;7.72;;;;;;;1.57;100.00;100911.22;5110775;28;20027;-86
2021/12/07 09:19:22;;;;;;;30.55;8.48;;;;;;;1.64;100.00;100927.41;5111172;28;20077;-86
2021/12/07 09:21:48;;;;;;;24.58;7.60;;;;;;;1.67;100.00;100932.50;5112607;28;20043;-86
2021/12/07 09:24:13;;;;;;;27.98;7.68;;;;;;;1.66;100.00;100924.78;5111598;28;20119;-82
2021/12/07 09:26:39;;;;;;;24.52;8.00;;;;;;;1.67;100.00;100924.72;5095866;28;20103;-86
2021/12/07 09:29:06;;;;;;;27.90;8.30;;;;;;;1.72;100.00;100922.78;5091256;28;20032;-86
2021/12/07 09:31:32;;;;;;;21.77;7.63;;;;;;;1.75;100.00;100919.25;5092924;28;20032;-86
2021/12/07 09:33:58;;;;;;;21.20;7.40;;;;;;;1.77;100.00;100920.03;5089987;28;20104;-85
2021/12/07 09:36:25;;;;;;;25.75;7.88;;;;;;;1.84;100.00;100932.72;5090797;28;20107;-86
2021/12/07 09:38:51;;;;;;;21.35;7.65;;;;;;;1.88;100.00;100928.25;5089675;28;20694;-86
2021/12/07 09:41:17;;;;;;;27.27;7.75;;;;;;;1.93;100.00;100925.50;5090380;28;20032;-86
2021/12/07 09:43:43;;;;;;;26.13;7.97;;;;;;;2.02;100.00;100912.19;5090211;28;20074;-87
2021/12/07 09:46:11;;;;;;;25.70;7.30;;;;;;;2.16;100.00;100928.09;5090254;28;20020;-88
2021/12/07 09:48:38;;;;;;;23.23;7.57;;;;;;;2.23;100.00;100926.09;5090694;28;20111;-88
2021/12/07 09:51:05;;;;;;;19.58;6.78;;;;;;;2.26;100.00;100926.81;5086047;28;20024;-88
2021/12/07 09:53:31;;;;;;;22.85;7.22;;;;;;;2.27;100.00;100920.72;5090776;28;20510;-83
2021/12/07 09:55:58;;;;;;;21.95;6.72;;;;;;;2.28;100.00;100922.41;5093438;28;20058;-88
2021/12/07 09:58:24;;;;;;;16.73;6.53;;;;;;;2.29;100.00;100913.72;5089949;28;20035;-88
2021/12/07 10:00:50;;;;;;;21.13;6.60;;;;;;;2.36;100.00;100920.38;5091994;28;20024;-88
2021/12/07 10:03:18;;;;;;;21.90;6.82;;;;;;;2.39;100.00;100920.25;5093492;28;20040;-88
2021/12/07 10:05:43;;;;;;;22.38;6.90;;;;;;;2.36;100.00;100909.97;5093326;28;20372;-82
2021/12/07 10:08:09;;;;;;;22.45;7.22;;;;;;;2.37;100.00;100906.47;5093631;28;20141;-87
2021/12/07 10:10:51;;;;;;;22.88;6.82;;;;;;;2.47;100.00;100926.00;5090143;28;20419;-87
2021/12/07 10:13:17;;;;;;;27.83;6.53;;;;;;;2.43;100.00;100901.06;5092848;28;20395;-88
2021/12/07 10:15:44;;;;;;;22.50;6.22;;;;;;;2.53;100.00;100911.09;5092552;28;20034;-87
2021/12/07 10:18:15;;;;;;;20.73;5.65;;;;;;;2.59;100.00;100905.66;5092074;28;20392;-89
2021/12/07 10:20:45;;;;;;;18.35;6.20;;;;;;;2.60;100.00;100896.94;5093733;28;20028;-90
2021/12/07 10:23:14;;;;;;;26.17;6.45;;;;;;;2.64;100.00;100899.34;5086075;28;20028;-90
2021/12/07 10:25:40;;;;;;;25.58;6.60;;;;;;;2.61;100.00;100893.44;5093849;28;20027;-89
2021/12/07 10:28:24;;;;;;;24.92;6.38;;;;;;;2.71;100.00;100894.75;5094002;28;20150;-90
2021/12/07 10:30:50;;;;;;;16.33;5.65;;;;;;;2.75;100.00;100893.72;5093603;28;20027;-90
2021/12/07 10:33:27;;;;;;;29.05;6.53;;;;;;;2.80;100.00;100889.16;5093460;28;20046;-89
2021/12/07 10:36:10;;;;;;;19.90;6.40;;;;;;;2.89;100.00;100894.00;5093177;28;20393;-89
2021/12/07 10:38:37;;;;;;;23.40;6.03;;;;;;;2.90;100.00;100881.88;5077535;28;20024;-84
2021/12/07 10:41:07;;;;;;;22.83;5.47;;;;;;;2.96;100.00;100885.06;5073260;28;20035;-90
2021/12/07 10:43:47;;;;;;;18.00;5.93;;;;;;;3.03;100.00;100877.84;5072715;28;20044;-89
2021/12/07 10:46:44;;;;;;;18.73;5.65;;;;;;;3.03;100.00;100855.28;5073610;28;20028;-88
2021/12/07 10:49:23;;;;;;;22.67;5.75;;;;;;;3.15;100.00;100865.16;5074206;28;20020;-89
2021/12/07 10:52:07;;;;;;;18.23;5.82;;;;;;;3.20;100.00;100857.16;5079818;28;20040;-89
2021/12/07 10:54:37;;;;;;;26.02;6.32;;;;;;;3.21;99.45;100853.66;5113292;28;20031;-83
2021/12/07 10:57:04;;;;;;;24.42;6.47;;;;;;;3.22;99.18;100844.97;5112846;28;20218;-89
2021/12/07 10:59:31;;;;;;;21.20;6.20;;;;;;;3.30;99.28;100842.03;5114361;28;20023;-89
2021/12/07 11:01:56;;;;;;;17.17;5.78;;;;;;;3.29;98.48;100830.78;5113743;28;20028;-89
2021/12/07 11:04:33;;;;;;;25.33;6.13;;;;;;;3.38;98.65;100827.75;5113119;28;20054;-88
2021/12/07 11:07:14;;;;;;;19.17;5.93;;;;;;;3.42;98.58;100810.25;5098602;28;20020;-88
2021/12/07 11:10:05;;;;;;;15.98;5.78;;;;;;;3.50;97.28;100810.75;5092503;28;20020;-88
2021/12/07 11:12:43;;;;;;;23.90;6.18;;;;;;;3.54;97.97;100799.28;5091251;28;20035;-88
2021/12/07 11:15:17;;;;;;;23.85;7.10;;;;;;;3.58;97.93;100790.44;5111756;28;20368;-87
2021/12/07 11:17:45;;;;;;;26.02;6.55;;;;;;;3.62;97.56;100786.81;5111219;28;20439;-88
2021/12/07 11:20:12;;;;;;;23.95;6.95;;;;;;;3.73;97.40;100794.09;5112863;28;20061;-88
2021/12/07 11:22:45;;;;;;;19.30;5.63;;;;;;;3.75;97.29;100787.91;5093489;27;20028;-87
2021/12/07 11:25:22;;;;;;;22.02;6.65;;;;;;;3.80;97.36;100792.91;5092015;28;20024;-88
2021/12/07 11:30:32;;;;;;;20.80;6.60;;;;;;;3.91;96.45;100781.97;5092018;28;20046;-89
2021/12/07 11:32:59;;;;;;;24.98;7.07;;;;;;;3.95;95.29;100780.91;5091322;28;20027;-88
2021/12/07 11:35:26;;;;;;;24.98;6.82;;;;;;;4.01;94.75;100789.28;5087169;28;20048;-88
2021/12/07 11:37:53;;;;;;;22.45;7.30;;;;;;;3.98;94.74;100772.94;5088236;28;20028;-88
2021/12/07 11:40:24;;;;;;;25.17;8.45;;;;;;;4.08;94.51;100780.28;5087006;28;20567;-89
2021/12/07 11:42:50;;;;;;;25.60;9.07;;;;;;;4.12;94.31;100785.34;5084149;28;20086;-88
2021/12/07 11:45:28;;;;;;;24.65;9.18;;;;;;;4.19;94.79;100787.56;5088911;28;20433;-88
2021/12/07 11:48:00;;;;;;;28.10;8.05;;;;;;;4.19;92.80;100771.09;5081926;28;20518;-88
2021/12/07 11:50:37;;;;;;;17.05;7.18;;;;;;;4.21;92.19;100764.88;5086422;28;20049;-88
2021/12/07 11:53:17;;;;;;;26.73;7.70;;;;;;;4.26;91.69;100772.47;5083971;28;20036;-89
2021/12/07 11:55:49;;;;;;;26.33;8.30;;;;;;;4.27;92.99;100758.53;5083669;28;20035;-87
2021/12/07 11:58:15;;;;;;;20.58;7.38;;;;;;;4.34;92.64;100755.53;5085562;28;20047;-82
2021/12/07 12:00:45;;;;;;;20.80;6.70;;;;;;;4.42;91.96;100751.75;5082206;28;20099;-88
2021/12/07 12:03:14;;;;;;;21.83;7.00;;;;;;;4.39;91.50;100737.06;5085184;28;20032;-82
2021/12/07 12:05:42;;;;;;;19.67;6.20;;;;;;;4.45;92.70;100743.78;5086184;28;20677;-88
2021/12/07 12:08:10;;;;;;;17.75;5.63;;;;;;;4.48;91.97;100733.19;5083986;28;20036;-88
2021/12/07 12:10:43;;;;;;;15.75;5.57;;;;;;;4.53;90.61;100736.41;5083710;28;20027;-88
2021/12/07 12:13:16;;;;;;;19.42;5.50;;;;;;;4.58;89.89;100742.22;5083981;28;20024;-88
2021/12/07 12:15:46;;;;;;;22.50;5.38;;;;;;;4.58;89.46;100729.19;5081835;28;20373;-88
2021/12/07 12:18:40;;;;;;;20.30;5.10;;;;;;;4.65;89.79;100725.34;5078905;28;20020;-87
2021/12/07 12:21:24;;;;;;;15.25;5.13;;;;;;;4.66;88.72;100714.00;5082793;28;20017;-82
2021/12/07 12:24:05;;;;;;;24.10;6.15;;;;;;;4.71;89.65;100715.44;5074134;28;20416;-81
2021/12/07 12:26:30;;;;;;;12.93;4.72;;;;;;;4.74;89.38;100706.63;5079357;28;20107;-88
2021/12/07 12:28:57;;;;;;;20.02;4.90;;;;;;;4.79;89.31;100704.63;5080031;28;20103;-88
2021/12/07 12:31:49;;;;;;;17.30;4.78;;;;;;;4.77;90.12;100687.38;5077751;28;20070;-87
2021/12/07 12:34:33;;;;;;;14.00;4.30;;;;;;;4.82;89.49;100688.84;5095785;28;20387;-88
2021/12/07 12:37:31;;;;;;;16.00;4.40;;;;;;;4.86;88.80;100685.16;5083867;28;20066;-87
2021/12/07 12:40:03;;;;;;;16.88;4.03;;;;;;;4.92;87.66;100679.63;5041384;28;20453;-87
2021/12/07 12:42:36;;;;;;;16.02;4.00;;;;;;;4.95;88.24;100679.44;5087239;28;20035;-88
2021/12/07 12:45:18;;;;;;;16.75;4.28;;;;;;;4.97;86.11;100677.59;5074234;28;20029;-87
2021/12/07 12:47:43;;;;;;;16.38;3.85;;;;;;;4.95;87.54;100658.59;5074802;28;20023;-88
2021/12/07 12:50:20;;;;;;;16.83;3.95;;;;;;;4.98;86.64;100645.38;5077810;28;20465;-87
2021/12/07 12:52:48;;;;;;;16.10;3.08;;;;;;;5.04;86.99;100642.44;5081515;28;20039;-88
2021/12/07 12:55:29;;;;;;;14.80;3.53;;;;;;;5.08;86.66;100632.69;5075858;28;20017;-88
2021/12/07 12:57:55;;;;;;;12.07;3.08;;;;;;;5.09;85.48;100617.88;5073407;28;20043;-88
2021/12/07 13:00:22;;;;;;;14.65;3.50;;;;;;;5.08;85.32;100606.59;5069290;28;20040;-88
2021/12/07 13:02:54;;;;;;;15.48;3.25;;;;;;;5.07;86.40;100604.94;5073128;28;20460;-87
2021/12/07 13:05:34;;;;;;;14.90;3.05;;;;;;;5.06;85.63;100581.53;5075215;28;20027;-88
2021/12/07 13:08:17;;;;;;;10.10;2.90;;;;;;;5.03;85.61;100562.53;5077004;28;20051;-87
2021/12/07 13:11:00;;;;;;;;;;;;;;;5.16;88.09;100556.63;5073887;28;20020;-79